Slater, MO (65349)

12:01 AM CST on February 01, 2015 (GMT -0600)
Dwight Dr and Cedar | Change Station
CLOSE
Current Station
Personal Weather Station
Location: Waverly, MO
Elevation: 810 ft
Nearby Weather Stations

Elev 810 ft 39.21 °N, 93.52 °W | Updated 3 seconds ago

Snow
Snow
32.4 °F
Feels Like 26 °F
N
6.9
Wind Variable Wind from SE
Gusts 11.0 mph

Today
High -- | Low -- °F
--% Chance of Precip.
Yesterday
High -- | Low -- °F
Precip. -- in
7:19 AM 5:32 PM
Waxing Gibbous, 93% visible
Pressure 29.94 in
Visibility 7.0 miles
Clouds Overcast 4400 ft
Windchill 26 °F
Dew Point 31 °F
Humidity 96%
Rainfall 0.00 in
Snow Depth Not available.
UV 0 out of 12
Pollen .30 out of 12
Air Quality Not available.
Flu Activity Not available.
METAR KVER 010535Z AUTO 10005KT 7SM -RA OVC044 02/01 A2994 RMK AO2 P0002 T00190006

More Conditions Fewer Conditions

Pressure 29.94 in
Visibility 7.0 miles
Clouds Overcast 4400 ft
Windchill 26 °F
Dew Point 31 °F
Humidity 96%
Rainfall 0.00 in
Snow Depth Not available.
UV 0 out of 12
Pollen .30 out of 12
Air Quality Not available.
Flu Activity Not available.
METAR KVER 010535Z AUTO 10005KT 7SM -RA OVC044 02/01 A2994 RMK AO2 P0002 T00190006

More Conditions Fewer Conditions

10-Day Weather Forecast

Almanac

Astronomy

Feb. 01, 2015 Rise Set
Actual Time
Civil Twilight
Nautical Twilight
Astronomical Twilight
Moon
Length of Visible Light
Length of Day
Tomorrow will be .
, % of the Moon is Illuminated

Today's Extremes

State Highs State Lows

Community

WunderPhotos

Upload Photos

1,792,320 photos uploaded!

WunderBlogs® & News

Nearby

Air Quality

  Air Quality AQ Index Pollutant
Not available.

Snow Depth

Station Depth Elevation

Earthquake Activity

City Distance Mag. Time & Date
Minimum magnitude displayed is 2.5.

Coastal Water Temperatures

Place Temperature

Nearby Weather Stations